Terminal Aerodrome Forecast
Issued by NWS Billings, MT

Home | Current Version | Previous Version | Text Only | Print | Product List | Glossary On
Versions: 1 2 3 4 5 6 7 8 9 10 11 12 13 14 15 16 17 18 19 20 21 22 23 24 25 26 27 28 29 30 31 32 33 34 35 36 37
000
FTUS45 KBYZ 280536
TAFMLS
TAF
KMLS 280536Z 2806/2906 28020G30KT 6SM -RA BR OVC012
     FM281100 33030G40KT P6SM VCSH BKN060
     FM281700 33034G44KT P6SM VCSH BKN040
     FM290300 30018G28KT P6SM SCT100=

USA.gov is the U.S. government's official web portal to all federal, state and local government web resources and services.